createdAt,value
2022-11-17T00:00:04.098Z,3.03
2022-11-17T00:02:37.540Z,3.30
2022-11-17T00:05:07.210Z,3.47
2022-11-17T00:07:35.119Z,3.13
2022-11-17T00:10:02.908Z,3.17
2022-11-17T00:12:48.483Z,3.30
2022-11-17T00:15:16.512Z,3.70
2022-11-17T00:17:44.297Z,3.63
2022-11-17T00:20:31.171Z,3.73
2022-11-17T00:22:59.114Z,4.10
2022-11-17T00:25:26.904Z,4.33
2022-11-17T00:27:54.748Z,3.90
2022-11-17T00:30:43.692Z,3.80
2022-11-17T00:33:29.162Z,4.10
2022-11-17T00:35:58.264Z,5.10
2022-11-17T00:38:26.034Z,4.13
2022-11-17T00:40:53.776Z,4.17
2022-11-17T00:43:21.532Z,4.40
2022-11-17T00:45:49.268Z,4.40
2022-11-17T00:48:16.994Z,4.67
2022-11-17T00:50:44.735Z,5.17
2022-11-17T00:53:13.831Z,5.53
2022-11-17T00:55:41.614Z,5.27
2022-11-17T00:58:09.482Z,6.13
2022-11-17T01:00:37.243Z,5.50
2022-11-17T01:03:05.264Z,5.17
2022-11-17T01:05:35.553Z,5.77
2022-11-17T01:08:03.319Z,5.50
2022-11-17T01:10:32.584Z,5.50
2022-11-17T01:13:00.303Z,5.63
2022-11-17T01:15:28.245Z,5.60
2022-11-17T01:17:56.078Z,5.47
2022-11-17T01:20:23.853Z,6.10
2022-11-17T01:22:51.628Z,5.83
2022-11-17T01:25:19.453Z,5.70
2022-11-17T01:27:49.119Z,5.30
2022-11-17T01:30:17.747Z,5.83
2022-11-17T01:32:45.579Z,6.60
2022-11-17T01:35:13.307Z,6.33
2022-11-17T01:37:41.113Z,6.13
2022-11-17T01:40:13.109Z,5.63
2022-11-17T01:42:41.058Z,5.93
2022-11-17T01:45:20.444Z,6.23
2022-11-17T01:47:51.530Z,5.07
2022-11-17T01:50:29.388Z,5.60
2022-11-17T01:53:00.057Z,5.87
2022-11-17T01:55:33.058Z,5.50
2022-11-17T01:58:04.340Z,5.83
2022-11-17T02:00:33.572Z,5.63
2022-11-17T02:03:01.998Z,6.00
2022-11-17T02:05:41.295Z,5.40
2022-11-17T02:08:11.110Z,6.33
2022-11-17T02:10:39.732Z,6.47
2022-11-17T02:13:09.082Z,5.67
2022-11-17T02:15:38.162Z,6.10
2022-11-17T02:18:06.284Z,6.70
2022-11-17T02:20:49.281Z,6.40
2022-11-17T02:23:53.099Z,6.47
2022-11-17T02:26:41.516Z,6.07
2022-11-17T02:29:20.059Z,6.40
2022-11-17T02:31:54.706Z,6.30
2022-11-17T02:34:35.507Z,6.63
2022-11-17T02:37:11.327Z,6.93
2022-11-17T02:39:44.613Z,6.60
2022-11-17T02:42:18.736Z,6.53
2022-11-17T02:44:55.108Z,6.77
2022-11-17T02:47:27.019Z,7.17
2022-11-17T02:49:58.012Z,6.80
2022-11-17T02:52:27.449Z,6.40
2022-11-17T02:55:00.361Z,6.50
2022-11-17T02:57:29.457Z,6.67
2022-11-17T03:00:02.494Z,7.10
2022-11-17T03:02:44.261Z,7.03
2022-11-17T03:05:18.068Z,7.30
2022-11-17T03:08:17.154Z,7.40
2022-11-17T03:10:52.671Z,7.80
2022-11-17T03:13:26.060Z,7.17
2022-11-17T03:16:01.136Z,7.87
2022-11-17T03:18:36.239Z,7.37
2022-11-17T03:21:11.548Z,8.43
2022-11-17T03:23:43.788Z,8.00
2022-11-17T03:26:15.447Z,8.70
2022-11-17T03:28:47.295Z,8.83
2022-11-17T03:31:18.674Z,8.50
2022-11-17T03:33:50.668Z,9.77
2022-11-17T03:36:23.911Z,9.77
2022-11-17T03:38:59.254Z,9.73
2022-11-17T03:41:31.204Z,10.67
2022-11-17T03:44:01.282Z,11.53
2022-11-17T03:46:32.137Z,11.43
2022-11-17T03:49:07.380Z,11.40
2022-11-17T03:51:35.191Z,11.23
2022-11-17T03:54:03.164Z,10.87
2022-11-17T03:56:39.221Z,11.20
2022-11-17T03:59:15.159Z,10.80
2022-11-17T04:01:44.334Z,10.97
2022-11-17T04:04:15.708Z,11.70
2022-11-17T04:06:43.524Z,10.70
2022-11-17T04:09:11.525Z,11.30
2022-11-17T04:11:56.886Z,11.67
2022-11-17T04:14:42.043Z,11.63
2022-11-17T04:17:11.274Z,11.77
2022-11-17T04:19:39.219Z,12.07
2022-11-17T04:22:06.972Z,12.90
2022-11-17T04:24:34.742Z,13.23
2022-11-17T04:27:20.278Z,13.27
2022-11-17T04:29:48.057Z,13.57
2022-11-17T04:32:17.187Z,13.13
2022-11-17T04:34:44.958Z,13.83
2022-11-17T04:37:17.483Z,13.13
2022-11-17T04:39:45.912Z,13.00
2022-11-17T04:42:12.731Z,13.83
2022-11-17T04:44:40.475Z,14.07
2022-11-17T04:47:08.226Z,13.27
2022-11-17T04:49:37.364Z,14.37
2022-11-17T04:52:05.449Z,13.30
2022-11-17T04:54:33.261Z,14.37
2022-11-17T04:57:00.995Z,15.30
2022-11-17T04:59:28.761Z,13.90
2022-11-17T05:02:01.082Z,14.33
2022-11-17T05:04:49.878Z,14.53
2022-11-17T05:07:19.057Z,14.97
2022-11-17T05:09:46.858Z,14.23
2022-11-17T05:12:32.227Z,14.40
2022-11-17T05:14:59.989Z,15.37
2022-11-17T05:17:26.766Z,15.70
2022-11-17T05:19:54.535Z,16.03
2022-11-17T05:22:42.230Z,15.70
2022-11-17T05:25:11.004Z,15.73
2022-11-17T05:27:39.145Z,15.83
2022-11-17T05:30:09.329Z,16.03
2022-11-17T05:32:37.124Z,16.13
2022-11-17T05:35:05.294Z,14.63
2022-11-17T05:37:34.526Z,16.23
2022-11-17T05:40:02.393Z,15.90
2022-11-17T05:42:30.193Z,14.40
2022-11-17T05:44:57.996Z,14.50
2022-11-17T05:47:25.739Z,15.17
2022-11-17T05:49:53.555Z,14.67
2022-11-17T05:52:21.284Z,14.03
2022-11-17T05:54:50.409Z,15.07
2022-11-17T05:57:26.550Z,14.30
2022-11-17T05:59:59.603Z,14.17
2022-11-17T06:02:33.134Z,14.67
2022-11-17T06:05:00.888Z,13.73
2022-11-17T06:07:28.849Z,13.70
2022-11-17T06:09:58.056Z,13.20
2022-11-17T06:12:25.790Z,13.83
2022-11-17T06:14:53.512Z,12.50
2022-11-17T06:17:25.847Z,12.97
2022-11-17T06:19:58.139Z,13.20
2022-11-17T06:22:27.496Z,13.70
2022-11-17T06:24:56.033Z,12.87
2022-11-17T06:27:25.836Z,12.97
2022-11-17T06:29:54.980Z,12.83
2022-11-17T06:32:22.929Z,13.27
2022-11-17T06:34:55.827Z,13.10
2022-11-17T06:37:24.663Z,12.43
2022-11-17T06:39:52.446Z,12.10
2022-11-17T06:42:40.240Z,12.67
2022-11-17T06:45:10.751Z,12.60
2022-11-17T06:47:38.683Z,13.60
2022-11-17T06:50:07.165Z,12.50
2022-11-17T06:52:34.933Z,13.60
2022-11-17T06:55:02.863Z,12.23
2022-11-17T06:57:30.957Z,13.13
2022-11-17T06:59:58.749Z,12.90
2022-11-17T07:02:27.961Z,13.00
2022-11-17T07:04:55.670Z,13.77
2022-11-17T07:07:23.556Z,11.83
2022-11-17T07:09:51.390Z,13.00
2022-11-17T07:12:19.085Z,13.70
2022-11-17T07:14:46.874Z,12.13
2022-11-17T07:17:14.633Z,13.20
2022-11-17T07:19:43.822Z,13.60
2022-11-17T07:22:11.608Z,12.87
2022-11-17T07:24:39.403Z,12.10
2022-11-17T07:27:07.132Z,12.03
2022-11-17T07:29:34.858Z,12.17
2022-11-17T07:32:02.689Z,13.03
2022-11-17T07:34:30.427Z,12.90
2022-11-17T07:36:59.528Z,12.80
2022-11-17T07:39:27.342Z,12.83
2022-11-17T07:41:55.092Z,12.10
2022-11-17T07:44:22.855Z,12.33
2022-11-17T07:46:50.553Z,12.80
2022-11-17T07:49:18.296Z,12.97
2022-11-17T07:51:46.015Z,11.23
2022-11-17T07:54:15.182Z,12.57
2022-11-17T07:56:42.908Z,12.77
2022-11-17T07:59:11.075Z,12.40
2022-11-17T08:01:38.987Z,13.30
2022-11-17T08:04:06.929Z,11.27
2022-11-17T08:06:34.651Z,12.43
2022-11-17T08:09:02.408Z,12.37
2022-11-17T08:11:31.518Z,12.90
2022-11-17T08:13:59.274Z,12.27
2022-11-17T08:16:30.865Z,11.67
2022-11-17T08:18:58.808Z,12.37
2022-11-17T08:21:26.781Z,12.23
2022-11-17T08:23:55.255Z,12.77
2022-11-17T08:26:24.960Z,11.90
2022-11-17T08:28:58.347Z,12.13
2022-11-17T08:31:27.109Z,12.30
2022-11-17T08:33:54.850Z,12.27
2022-11-17T08:36:22.660Z,11.10
2022-11-17T08:38:50.419Z,11.47
2022-11-17T08:41:18.947Z,10.93
2022-11-17T08:43:46.720Z,12.10
2022-11-17T08:46:15.782Z,11.07
2022-11-17T08:48:43.565Z,10.90
2022-11-17T08:51:14.701Z,12.43
2022-11-17T08:53:42.911Z,10.87
2022-11-17T08:56:12.758Z,10.80
2022-11-17T08:58:41.222Z,11.33
2022-11-17T09:01:10.298Z,11.43
2022-11-17T09:03:39.525Z,11.27
2022-11-17T09:06:07.751Z,11.13
2022-11-17T09:08:56.390Z,11.37
2022-11-17T09:11:23.402Z,11.17
2022-11-17T09:13:51.205Z,11.03
2022-11-17T09:16:19.057Z,10.50
2022-11-17T09:18:48.203Z,11.47
2022-11-17T09:21:17.075Z,11.63
2022-11-17T09:23:45.066Z,11.30
2022-11-17T09:26:14.925Z,10.73
2022-11-17T09:28:43.994Z,11.27
2022-11-17T09:31:14.173Z,11.13
2022-11-17T09:33:42.291Z,11.10
2022-11-17T09:36:12.663Z,11.97
2022-11-17T09:38:41.230Z,11.50
2022-11-17T09:41:26.267Z,11.03
2022-11-17T09:44:05.055Z,11.47
2022-11-17T09:46:44.963Z,11.93
2022-11-17T09:49:29.158Z,11.23
2022-11-17T09:52:04.178Z,11.73
2022-11-17T09:54:42.523Z,11.87
2022-11-17T09:57:22.530Z,10.87
2022-11-17T10:00:05.854Z,10.47
2022-11-17T10:02:34.772Z,10.53
2022-11-17T10:05:02.869Z,10.73
2022-11-17T10:07:34.561Z,10.43
2022-11-17T10:10:04.548Z,10.87
2022-11-17T10:12:37.195Z,10.30
2022-11-17T10:15:22.212Z,10.13
2022-11-17T10:17:51.675Z,9.93
2022-11-17T10:20:19.834Z,10.70
2022-11-17T10:22:51.112Z,9.97
2022-11-17T10:25:24.441Z,9.83
2022-11-17T10:27:54.059Z,9.87
2022-11-17T10:30:24.341Z,9.83
2022-11-17T10:32:55.193Z,9.70
2022-11-17T10:35:25.455Z,8.97
2022-11-17T10:37:57.989Z,8.90
2022-11-17T10:40:27.426Z,8.57
2022-11-17T10:43:50.440Z,8.57
2022-11-17T10:47:05.884Z,8.70
2022-11-17T10:53:31.050Z,8.23
2022-11-17T10:56:03.184Z,8.37
2022-11-17T10:58:32.875Z,7.90
2022-11-17T11:01:03.489Z,8.23
2022-11-17T11:03:34.552Z,7.60
2022-11-17T11:06:06.226Z,8.53
2022-11-17T11:08:51.258Z,7.87
2022-11-17T11:11:35.961Z,7.90
2022-11-17T11:14:13.067Z,7.93
2022-11-17T11:16:47.643Z,7.57
2022-11-17T11:19:17.566Z,7.30
2022-11-17T11:22:03.115Z,7.97
2022-11-17T11:24:39.183Z,6.80
2022-11-17T11:27:24.743Z,7.23
2022-11-17T11:30:02.295Z,6.70
2022-11-17T11:32:39.895Z,6.90
2022-11-17T11:35:34.542Z,6.57
2022-11-17T11:38:15.036Z,7.27
2022-11-17T11:41:05.918Z,6.70
2022-11-17T11:43:41.066Z,7.00
2022-11-17T11:46:17.052Z,7.00
2022-11-17T11:48:47.825Z,6.80
2022-11-17T11:51:19.277Z,6.27
2022-11-17T11:53:53.617Z,6.63
2022-11-17T11:56:28.253Z,6.77
2022-11-17T11:59:01.812Z,6.43
2022-11-17T12:01:37.798Z,6.80
2022-11-17T12:04:20.382Z,6.67
2022-11-17T12:06:54.387Z,8.67
2022-11-17T12:09:57.558Z,7.67
2022-11-17T12:12:31.722Z,6.80
2022-11-17T12:15:11.898Z,6.93
2022-11-17T12:17:58.182Z,6.43
2022-11-17T12:20:54.659Z,7.57
2022-11-17T12:23:39.143Z,7.23
2022-11-17T12:26:06.974Z,7.00
2022-11-17T12:28:38.374Z,6.53
2022-11-17T12:31:10.299Z,6.93
2022-11-17T12:34:10.999Z,7.23
2022-11-17T12:36:39.068Z,6.50
2022-11-17T12:39:08.132Z,6.87
2022-11-17T12:42:09.098Z,6.70
2022-11-17T12:45:00.239Z,6.47
2022-11-17T12:47:30.802Z,6.73
2022-11-17T12:50:27.211Z,6.67
2022-11-17T12:53:19.822Z,6.10
2022-11-17T12:56:33.187Z,6.70
2022-11-17T12:59:14.816Z,6.87
2022-11-17T13:01:52.781Z,7.20
2022-11-17T13:04:25.789Z,6.97
2022-11-17T13:07:01.164Z,7.10
2022-11-17T13:09:30.755Z,7.27
2022-11-17T13:12:04.209Z,7.10
2022-11-17T13:14:32.733Z,6.70
2022-11-17T13:17:02.856Z,6.77
2022-11-17T13:19:34.016Z,6.50
2022-11-17T13:22:05.668Z,6.80
2022-11-17T13:24:36.175Z,7.20
2022-11-17T13:27:07.399Z,6.67
2022-11-17T13:29:35.449Z,6.40
2022-11-17T13:32:13.307Z,6.70
2022-11-17T13:34:47.923Z,6.97
2022-11-17T13:37:18.990Z,6.37
2022-11-17T13:39:58.130Z,6.47
2022-11-17T13:42:27.884Z,6.60
2022-11-17T13:44:58.288Z,6.33
2022-11-17T13:47:45.415Z,6.43
2022-11-17T13:50:34.986Z,7.13
2022-11-17T13:53:05.782Z,6.80
2022-11-17T13:55:35.331Z,6.30
2022-11-17T13:58:06.322Z,6.60
2022-11-17T14:00:35.554Z,6.63
2022-11-17T14:03:06.235Z,6.37
2022-11-17T14:05:35.117Z,6.07
2022-11-17T14:08:13.757Z,6.60
2022-11-17T14:10:41.740Z,6.03
2022-11-17T14:13:26.886Z,6.27
2022-11-17T14:15:57.757Z,6.17
2022-11-17T14:18:36.865Z,6.17
2022-11-17T14:21:16.531Z,5.87
2022-11-17T14:23:45.798Z,6.13
2022-11-17T14:26:20.385Z,6.20
2022-11-17T14:28:49.091Z,6.37
2022-11-17T14:31:17.239Z,5.90
2022-11-17T14:33:47.108Z,6.13
2022-11-17T14:36:17.481Z,6.97
2022-11-17T14:38:46.254Z,5.87
2022-11-17T14:41:16.153Z,6.40
2022-11-17T14:43:44.004Z,6.03
2022-11-17T14:46:19.823Z,6.37
2022-11-17T14:48:49.278Z,6.57
2022-11-17T14:51:17.294Z,6.53
2022-11-17T14:53:45.969Z,6.10
2022-11-17T14:56:16.078Z,5.80
2022-11-17T14:58:43.845Z,5.50
2022-11-17T15:01:14.719Z,6.13
2022-11-17T15:03:42.596Z,5.97
2022-11-17T15:06:19.489Z,6.47
2022-11-17T15:08:48.315Z,6.37
2022-11-17T15:11:18.649Z,6.57
2022-11-17T15:13:46.503Z,6.60
2022-11-17T15:16:14.380Z,6.30
2022-11-17T15:18:45.738Z,6.60
2022-11-17T15:21:15.965Z,5.60
2022-11-17T15:23:44.209Z,6.80
2022-11-17T15:26:14.463Z,7.07
2022-11-17T15:28:43.224Z,7.23
2022-11-17T15:31:13.098Z,7.23
2022-11-17T15:33:41.718Z,6.50
2022-11-17T15:36:11.224Z,6.20
2022-11-17T15:38:41.556Z,6.40
2022-11-17T15:41:11.564Z,6.30
2022-11-17T15:43:41.159Z,6.90
2022-11-17T15:46:10.681Z,6.97
2022-11-17T15:48:42.322Z,8.10
2022-11-17T15:51:12.532Z,7.97
2022-11-17T15:53:44.695Z,7.00
2022-11-17T15:56:13.679Z,8.00
2022-11-17T15:58:43.352Z,7.37
2022-11-17T16:01:13.449Z,7.30
2022-11-17T16:03:43.188Z,7.70
2022-11-17T16:06:11.413Z,7.37
2022-11-17T16:08:40.113Z,7.87
2022-11-17T16:11:11.245Z,7.60
2022-11-17T16:13:39.589Z,8.17
2022-11-17T16:16:08.475Z,8.03
2022-11-17T16:18:38.579Z,7.53
2022-11-17T16:21:08.016Z,8.20
2022-11-17T16:23:40.202Z,8.40
2022-11-17T16:26:10.396Z,7.60
2022-11-17T16:28:38.608Z,7.50
2022-11-17T16:31:14.779Z,7.30
2022-11-17T16:33:48.216Z,7.10
2022-11-17T16:36:16.312Z,7.13
2022-11-17T16:38:59.827Z,7.67
2022-11-17T16:41:31.915Z,7.37
2022-11-17T16:44:00.120Z,7.50
2022-11-17T16:46:30.351Z,7.57
2022-11-17T16:49:01.471Z,6.70
2022-11-17T16:51:29.299Z,6.87
2022-11-17T16:53:58.769Z,7.50
2022-11-17T16:56:26.995Z,7.77
2022-11-17T16:58:56.510Z,7.00
2022-11-17T17:01:26.174Z,6.87
2022-11-17T17:03:56.919Z,7.40
2022-11-17T17:06:25.004Z,7.57
2022-11-17T17:08:56.387Z,8.23
2022-11-17T17:11:24.566Z,6.97
2022-11-17T17:13:53.971Z,6.90
2022-11-17T17:16:23.264Z,7.13
2022-11-17T17:18:55.660Z,6.50
2022-11-17T17:21:23.899Z,6.83
2022-11-17T17:23:51.943Z,6.77
2022-11-17T17:26:22.350Z,6.93
2022-11-17T17:28:52.221Z,6.67
2022-11-17T17:31:23.769Z,6.17
2022-11-17T17:33:52.251Z,5.50
2022-11-17T17:36:21.949Z,5.53
2022-11-17T17:38:55.504Z,5.37
2022-11-17T17:41:25.249Z,5.07
2022-11-17T17:43:57.595Z,5.40
2022-11-17T17:46:29.640Z,5.63
2022-11-17T17:48:58.094Z,4.97
2022-11-17T17:51:27.965Z,4.63
2022-11-17T17:53:58.143Z,4.67
2022-11-17T17:56:26.541Z,5.23
2022-11-17T17:58:55.835Z,5.20
2022-11-17T18:01:26.897Z,5.00
2022-11-17T18:04:01.045Z,4.87
2022-11-17T18:06:29.218Z,5.10
2022-11-17T18:08:59.187Z,4.87
2022-11-17T18:11:27.564Z,4.97
2022-11-17T18:13:55.573Z,5.33
2022-11-17T18:16:25.438Z,5.10
2022-11-17T18:18:59.148Z,4.93
2022-11-17T18:21:28.610Z,4.73
2022-11-17T18:23:57.931Z,5.27
2022-11-17T18:26:27.906Z,4.90
2022-11-17T18:28:57.850Z,4.97
2022-11-17T18:31:27.677Z,4.87
2022-11-17T18:33:58.603Z,5.60
2022-11-17T18:36:27.461Z,4.90
2022-11-17T18:38:57.561Z,5.10
2022-11-17T18:41:26.584Z,4.67
2022-11-17T18:43:56.232Z,4.80
2022-11-17T18:46:25.596Z,5.23
2022-11-17T18:48:54.181Z,5.60
2022-11-17T18:51:25.699Z,5.30
2022-11-17T18:53:55.145Z,5.13
2022-11-17T18:56:25.051Z,5.50
2022-11-17T18:58:53.601Z,5.70
2022-11-17T19:01:23.152Z,5.00
2022-11-17T19:03:53.469Z,5.83
2022-11-17T19:06:24.823Z,5.10
2022-11-17T19:08:53.845Z,5.47
2022-11-17T19:11:23.328Z,6.10
2022-11-17T19:13:52.395Z,5.80
2022-11-17T19:16:22.773Z,5.40
2022-11-17T19:18:52.220Z,6.43
2022-11-17T19:21:22.203Z,6.03
2022-11-17T19:23:52.429Z,6.20
2022-11-17T19:26:21.785Z,5.30
2022-11-17T19:28:50.252Z,5.70
2022-11-17T19:31:19.709Z,5.53
2022-11-17T19:33:50.043Z,4.90
2022-11-17T19:36:20.284Z,5.00
2022-11-17T19:38:49.998Z,4.83
2022-11-17T19:41:20.912Z,4.63
2022-11-17T19:43:49.220Z,4.47
2022-11-17T19:46:18.387Z,4.33
2022-11-17T19:48:46.445Z,4.27
2022-11-17T19:51:20.748Z,4.60
2022-11-17T19:53:49.720Z,5.17
2022-11-17T19:56:19.484Z,5.03
2022-11-17T19:58:48.269Z,5.13
2022-11-17T20:01:18.864Z,5.20
2022-11-17T20:03:47.434Z,5.63
2022-11-17T20:06:17.028Z,5.10
2022-11-17T20:08:45.407Z,6.07
2022-11-17T20:11:14.848Z,5.30
2022-11-17T20:13:44.890Z,7.07
2022-11-17T20:16:14.979Z,6.60
2022-11-17T20:18:43.844Z,6.33
2022-11-17T20:21:13.903Z,6.00
2022-11-17T20:23:43.418Z,6.30
2022-11-17T20:26:14.453Z,6.63
2022-11-17T20:28:44.235Z,6.47
2022-11-17T20:31:13.731Z,6.30
2022-11-17T20:33:43.686Z,6.23
2022-11-17T20:36:13.400Z,6.60
2022-11-17T20:38:41.349Z,5.93
2022-11-17T20:41:09.902Z,6.30
2022-11-17T20:43:39.934Z,6.50
2022-11-17T20:46:09.153Z,6.73
2022-11-17T20:48:37.008Z,7.60
2022-11-17T20:51:06.904Z,7.00
2022-11-17T20:53:35.416Z,6.20
2022-11-17T20:56:06.011Z,6.00
2022-11-17T20:58:34.782Z,7.33
2022-11-17T21:01:09.987Z,7.63
2022-11-17T21:03:38.210Z,6.40
2022-11-17T21:06:06.828Z,6.47
2022-11-17T21:08:36.709Z,6.03
2022-11-17T21:11:06.600Z,5.83
2022-11-17T21:13:35.962Z,6.70
2022-11-17T21:16:06.251Z,5.60
2022-11-17T21:18:37.026Z,5.27
2022-11-17T21:21:08.771Z,5.77
2022-11-17T21:23:37.518Z,6.20
2022-11-17T21:26:06.190Z,5.47
2022-11-17T21:28:34.203Z,6.30
2022-11-17T21:31:09.501Z,5.73
2022-11-17T21:33:38.907Z,5.80
2022-11-17T21:36:09.186Z,5.40
2022-11-17T21:38:37.366Z,6.23
2022-11-17T21:41:06.070Z,5.87
2022-11-17T21:43:37.454Z,5.60
2022-11-17T21:46:07.435Z,5.33
2022-11-17T21:48:36.557Z,5.40
2022-11-17T21:51:06.984Z,5.63
2022-11-17T21:53:35.156Z,5.13
2022-11-17T21:56:03.445Z,5.47
2022-11-17T21:58:31.634Z,5.60
2022-11-17T22:01:00.128Z,4.40
2022-11-17T22:03:28.273Z,4.87
2022-11-17T22:06:02.092Z,4.67
2022-11-17T22:08:31.654Z,4.57
2022-11-17T22:11:04.132Z,4.30
2022-11-17T22:13:31.981Z,5.17
2022-11-17T22:16:04.498Z,4.90
2022-11-17T22:18:32.853Z,5.57
2022-11-17T22:21:00.881Z,5.03
2022-11-17T22:23:29.304Z,5.43
2022-11-17T22:26:00.269Z,4.83
2022-11-17T22:28:28.644Z,4.90
2022-11-17T22:30:56.698Z,5.60
2022-11-17T22:33:25.021Z,5.27
2022-11-17T22:35:53.163Z,5.70
2022-11-17T22:38:21.200Z,5.13
2022-11-17T22:40:49.172Z,5.00
2022-11-17T22:43:18.387Z,4.97
2022-11-17T22:45:46.253Z,5.33
2022-11-17T22:48:14.108Z,5.47
2022-11-17T22:50:41.923Z,5.47
2022-11-17T22:53:09.883Z,6.10
2022-11-17T22:55:37.903Z,5.90
2022-11-17T22:58:05.769Z,6.10
2022-11-17T23:00:35.076Z,5.50
2022-11-17T23:03:03.119Z,6.10
2022-11-17T23:05:31.117Z,5.70
2022-11-17T23:07:59.147Z,5.67
2022-11-17T23:10:27.221Z,6.53
2022-11-17T23:12:55.516Z,5.93
2022-11-17T23:15:23.690Z,6.17
2022-11-17T23:17:53.038Z,6.37
2022-11-17T23:20:20.923Z,6.13
2022-11-17T23:22:48.745Z,6.17
2022-11-17T23:25:16.762Z,6.03
2022-11-17T23:27:44.823Z,5.33
2022-11-17T23:30:13.994Z,5.77
2022-11-17T23:32:41.823Z,6.53
2022-11-17T23:35:11.921Z,7.00
2022-11-17T23:37:39.900Z,6.70
2022-11-17T23:40:09.007Z,6.13
2022-11-17T23:42:42.736Z,5.83
2022-11-17T23:45:12.811Z,5.93
2022-11-17T23:47:40.701Z,5.93
2022-11-17T23:50:09.506Z,5.80
2022-11-17T23:52:38.734Z,6.27
2022-11-17T23:55:08.569Z,7.53
2022-11-17T23:57:36.560Z,6.57
